createdAt,value
2018-01-27T00:00:32.253Z,4.30
2018-01-27T00:05:15.606Z,4.30
2018-01-27T00:09:58.952Z,4.30
2018-01-27T00:14:43.160Z,4.30
2018-01-27T00:19:26.550Z,4.30
2018-01-27T00:24:09.895Z,4.30
2018-01-27T00:28:53.252Z,4.30
2018-01-27T00:33:37.380Z,4.30
2018-01-27T00:38:20.975Z,4.30
2018-01-27T00:43:04.389Z,4.30
2018-01-27T00:47:47.772Z,4.30
2018-01-27T00:52:31.134Z,4.40
2018-01-27T00:57:14.758Z,4.60
2018-01-27T01:01:58.060Z,4.70
2018-01-27T01:06:41.457Z,4.90
2018-01-27T01:11:24.809Z,4.90
2018-01-27T01:16:08.210Z,4.90
2018-01-27T01:20:51.559Z,4.90
2018-01-27T01:25:34.954Z,4.90
2018-01-27T01:30:18.268Z,4.90
2018-01-27T01:35:01.884Z,4.90
2018-01-27T01:39:45.917Z,4.90
2018-01-27T01:44:30.012Z,4.90
2018-01-27T01:49:23.314Z,4.90
2018-01-27T01:54:06.655Z,4.90
2018-01-27T01:58:49.985Z,4.80
2018-01-27T02:03:33.313Z,4.80
2018-01-27T02:08:16.971Z,4.70
2018-01-27T02:13:00.314Z,4.70
2018-01-27T02:17:43.651Z,4.60
2018-01-27T02:22:26.991Z,4.60
2018-01-27T02:27:10.314Z,4.50
2018-01-27T02:31:53.696Z,4.50
2018-01-27T02:36:37.036Z,4.50
2018-01-27T02:41:20.335Z,4.50
2018-01-27T02:46:03.702Z,4.60
2018-01-27T02:50:47.050Z,4.50
2018-01-27T02:55:31.160Z,4.30
2018-01-27T03:00:14.746Z,4.20
2018-01-27T03:04:58.040Z,4.10
2018-01-27T03:09:41.369Z,4.20
2018-01-27T03:14:25.482Z,4.30
2018-01-27T03:19:08.817Z,4.30
2018-01-27T03:23:52.121Z,4.30
2018-01-27T03:28:35.474Z,4.40
2018-01-27T03:33:18.779Z,4.40
2018-01-27T03:38:02.861Z,4.40
2018-01-27T03:42:46.218Z,4.40
2018-01-27T03:47:29.521Z,4.40
2018-01-27T03:52:13.872Z,4.50
2018-01-27T03:56:57.178Z,4.50
2018-01-27T04:01:40.530Z,4.60
2018-01-27T04:06:23.844Z,4.70
2018-01-27T04:11:07.165Z,4.80
2018-01-27T04:15:50.497Z,4.80
2018-01-27T04:20:33.862Z,4.70
2018-01-27T04:25:17.177Z,4.70
2018-01-27T04:30:00.496Z,4.60
2018-01-27T04:34:44.571Z,4.70
2018-01-27T04:39:27.904Z,4.70
2018-01-27T04:44:11.963Z,4.80
2018-01-27T04:48:56.048Z,4.80
2018-01-27T04:53:39.376Z,4.80
2018-01-27T04:58:22.682Z,4.80
2018-01-27T05:03:06.037Z,4.90
2018-01-27T05:07:49.366Z,4.80
2018-01-27T05:12:33.713Z,5.00
2018-01-27T05:17:16.993Z,5.00
2018-01-27T05:22:00.334Z,5.10
2018-01-27T05:26:43.683Z,5.10
2018-01-27T05:31:26.991Z,5.10
2018-01-27T05:36:11.074Z,5.10
2018-01-27T05:40:54.372Z,5.10
2018-01-27T05:45:37.718Z,5.10
2018-01-27T05:50:21.050Z,5.10
2018-01-27T05:55:04.448Z,5.20
2018-01-27T05:59:47.778Z,5.20
2018-01-27T06:04:31.101Z,5.30
2018-01-27T06:09:15.178Z,5.30
2018-01-27T06:13:58.578Z,5.30
2018-01-27T06:18:41.924Z,5.30
2018-01-27T06:23:25.249Z,5.30
2018-01-27T06:28:08.594Z,5.20
2018-01-27T06:32:51.899Z,5.10
2018-01-27T06:37:35.212Z,5.10
2018-01-27T06:42:19.294Z,4.90
2018-01-27T06:47:02.620Z,4.90
2018-01-27T06:51:45.940Z,4.90
2018-01-27T06:56:29.267Z,4.90
2018-01-27T07:01:13.333Z,5.00
2018-01-27T07:05:57.405Z,5.10
2018-01-27T07:10:40.743Z,5.00
2018-01-27T07:15:24.048Z,5.10
2018-01-27T07:20:07.397Z,5.10
2018-01-27T07:24:50.727Z,5.10
2018-01-27T07:29:34.310Z,5.20
2018-01-27T07:34:17.599Z,5.20
2018-01-27T07:39:00.983Z,5.20
2018-01-27T07:43:44.587Z,5.30
2018-01-27T07:48:27.908Z,5.40
2018-01-27T07:53:11.267Z,5.40
2018-01-27T07:57:54.918Z,5.40
2018-01-27T08:02:38.208Z,5.60
2018-01-27T08:07:21.557Z,5.70
2018-01-27T08:12:04.923Z,5.70
2018-01-27T08:16:48.241Z,5.70
2018-01-27T08:21:31.605Z,5.70
2018-01-27T08:26:14.910Z,5.70
2018-01-27T08:30:58.233Z,5.90
2018-01-27T08:35:42.326Z,5.80
2018-01-27T08:40:26.567Z,5.70
2018-01-27T08:45:09.916Z,5.80
2018-01-27T08:49:53.260Z,5.80
2018-01-27T08:54:36.582Z,5.90
2018-01-27T08:59:19.938Z,6.00
2018-01-27T09:04:03.238Z,6.00
2018-01-27T09:08:46.558Z,5.90
2018-01-27T09:13:29.889Z,6.00
2018-01-27T09:18:13.552Z,6.00
2018-01-27T09:22:56.965Z,6.10
2018-01-27T09:27:43.827Z,6.20
2018-01-27T09:32:30.173Z,6.20
2018-01-27T09:37:15.031Z,6.30
2018-01-27T09:41:58.882Z,6.30
2018-01-27T09:46:42.399Z,6.40
2018-01-27T09:51:44.438Z,6.40
2018-01-27T09:56:28.075Z,6.50
2018-01-27T10:01:12.964Z,6.70
2018-01-27T10:05:57.263Z,6.40
2018-01-27T10:10:41.856Z,6.40
2018-01-27T10:15:26.267Z,6.50
2018-01-27T10:20:12.065Z,6.60
2018-01-27T10:24:57.852Z,6.70
2018-01-27T10:29:43.392Z,6.80
2018-01-27T10:34:28.775Z,6.90
2018-01-27T10:39:12.443Z,7.10
2018-01-27T10:43:57.979Z,7.30
2018-01-27T10:48:42.120Z,7.40
2018-01-27T10:53:26.834Z,7.30
2018-01-27T10:58:10.552Z,7.20
2018-01-27T11:02:53.915Z,7.20
2018-01-27T11:07:37.438Z,7.20
2018-01-27T11:12:21.015Z,7.20
2018-01-27T11:17:04.312Z,7.20
2018-01-27T11:21:47.652Z,7.20
2018-01-27T11:26:31.010Z,7.20
2018-01-27T11:31:15.384Z,7.20
2018-01-27T11:35:58.719Z,7.20
2018-01-27T11:40:42.075Z,7.00
2018-01-27T11:45:25.393Z,6.90
2018-01-27T11:50:08.860Z,6.90
2018-01-27T11:54:52.199Z,6.80
2018-01-27T11:59:35.553Z,6.80
2018-01-27T12:04:18.894Z,6.90
2018-01-27T12:09:03.737Z,7.00
2018-01-27T12:13:47.092Z,7.00
2018-01-27T12:18:30.415Z,7.00
2018-01-27T12:23:13.796Z,7.20
2018-01-27T12:27:57.140Z,7.20
2018-01-27T12:32:40.465Z,7.40
2018-01-27T12:37:23.810Z,7.50
2018-01-27T12:42:07.230Z,7.50
2018-01-27T12:46:51.500Z,7.40
2018-01-27T12:51:34.879Z,7.40
2018-01-27T12:56:19.038Z,7.30
2018-01-27T13:01:02.370Z,7.20
2018-01-27T13:05:46.085Z,7.20
2018-01-27T13:10:29.414Z,7.20
2018-01-27T13:15:12.760Z,7.30
2018-01-27T13:19:56.211Z,7.30
2018-01-27T13:24:39.539Z,7.30
2018-01-27T13:29:23.008Z,7.30
2018-01-27T13:34:06.448Z,7.20
2018-01-27T13:38:49.758Z,7.20
2018-01-27T13:43:33.047Z,7.20
2018-01-27T13:48:16.375Z,7.20
2018-01-27T13:53:00.518Z,7.20
2018-01-27T13:57:43.826Z,7.10
2018-01-27T14:02:27.189Z,7.10
2018-01-27T14:07:10.520Z,7.10
2018-01-27T14:11:53.851Z,7.10
2018-01-27T14:16:37.163Z,7.10
2018-01-27T14:21:21.284Z,6.90
2018-01-27T14:26:04.828Z,7.00
2018-01-27T14:30:48.161Z,6.90
2018-01-27T14:35:31.454Z,6.80
2018-01-27T14:40:14.849Z,6.70
2018-01-27T14:44:58.139Z,6.60
2018-01-27T14:49:42.215Z,6.50
2018-01-27T14:54:25.589Z,6.50
2018-01-27T14:59:08.886Z,6.40
2018-01-27T15:03:52.199Z,6.30
2018-01-27T15:08:35.611Z,6.20
2018-01-27T15:13:18.997Z,6.00
2018-01-27T15:18:02.370Z,5.80
2018-01-27T15:22:45.670Z,5.70
2018-01-27T15:27:29.014Z,5.40
2018-01-27T15:32:12.356Z,4.80
2018-01-27T15:36:56.507Z,4.20
2018-01-27T15:41:40.586Z,3.50
2018-01-27T15:46:23.904Z,3.50
2018-01-27T15:51:07.223Z,3.30
2018-01-27T15:55:50.642Z,3.10
2018-01-27T16:00:34.017Z,3.00
2018-01-27T16:05:17.358Z,2.80
2018-01-27T16:10:00.734Z,2.60
2018-01-27T16:14:44.038Z,2.50
2018-01-27T16:19:27.368Z,2.30
2018-01-27T16:24:10.736Z,2.30
2018-01-27T16:28:54.099Z,2.20
2018-01-27T16:33:37.438Z,2.10
2018-01-27T16:38:20.719Z,2.10
2018-01-27T16:43:04.856Z,2.50
2018-01-27T16:47:49.884Z,2.80
2018-01-27T16:52:33.202Z,2.80
2018-01-27T16:57:16.513Z,3.10
2018-01-27T17:02:00.106Z,3.30
2018-01-27T17:06:44.203Z,3.60
2018-01-27T17:11:27.606Z,3.60
2018-01-27T17:16:10.954Z,3.80
2018-01-27T17:20:55.046Z,3.90
2018-01-27T17:25:38.393Z,3.90
2018-01-27T17:30:21.741Z,3.90
2018-01-27T17:35:05.105Z,3.80
2018-01-27T17:39:48.559Z,3.80
2018-01-27T17:44:31.897Z,3.90
2018-01-27T17:49:15.241Z,3.90
2018-01-27T17:53:58.608Z,3.90
2018-01-27T17:58:42.694Z,4.00
2018-01-27T18:03:26.033Z,4.00
2018-01-27T18:08:09.469Z,4.00
2018-01-27T18:12:52.845Z,3.90
2018-01-27T18:17:36.488Z,3.80
2018-01-27T18:22:20.338Z,3.80
2018-01-27T18:27:04.874Z,3.70
2018-01-27T18:31:48.264Z,3.40
2018-01-27T18:36:31.627Z,3.20
2018-01-27T18:41:15.006Z,2.90
2018-01-27T18:45:58.347Z,3.00
2018-01-27T18:50:42.976Z,2.90
2018-01-27T18:55:26.476Z,2.80
2018-01-27T19:00:09.849Z,2.70
2018-01-27T19:04:53.669Z,2.80
2018-01-27T19:09:37.942Z,2.70
2018-01-27T19:14:22.071Z,2.60
2018-01-27T19:19:05.578Z,2.60
2018-01-27T19:23:49.162Z,2.70
2018-01-27T19:28:32.735Z,2.80
2018-01-27T19:33:17.929Z,2.80
2018-01-27T19:38:01.464Z,2.80
2018-01-27T19:42:44.806Z,2.80
2018-01-27T19:47:28.128Z,2.70
2018-01-27T19:52:12.270Z,2.80
2018-01-27T19:56:55.618Z,2.90
2018-01-27T20:01:38.954Z,2.90
2018-01-27T20:06:22.331Z,2.70
2018-01-27T20:11:05.641Z,2.60
2018-01-27T20:15:49.066Z,2.70
2018-01-27T20:20:32.474Z,2.80
2018-01-27T20:25:15.871Z,2.80
2018-01-27T20:29:59.221Z,2.80
2018-01-27T20:34:42.709Z,2.90
2018-01-27T20:39:26.072Z,3.00
2018-01-27T20:44:09.392Z,3.00
2018-01-27T20:48:53.500Z,2.90
2018-01-27T20:53:37.687Z,2.90
2018-01-27T20:58:21.049Z,2.80
2018-01-27T21:03:05.355Z,2.60
2018-01-27T21:07:48.951Z,2.30
2018-01-27T21:12:32.359Z,2.20
2018-01-27T21:17:15.791Z,2.20
2018-01-27T21:21:59.278Z,2.20
2018-01-27T21:26:42.601Z,2.10
2018-01-27T21:31:26.026Z,2.20
2018-01-27T21:36:09.381Z,2.30
2018-01-27T21:40:52.783Z,2.40
2018-01-27T21:45:36.124Z,2.50
2018-01-27T21:50:19.497Z,2.70
2018-01-27T21:55:02.801Z,2.70
2018-01-27T21:59:46.246Z,2.80
2018-01-27T22:04:30.035Z,2.90
2018-01-27T22:09:14.709Z,2.90
2018-01-27T22:13:58.138Z,2.90
2018-01-27T22:18:41.464Z,3.10
2018-01-27T22:23:24.774Z,3.00
2018-01-27T22:28:08.154Z,3.10
2018-01-27T22:32:52.092Z,3.20
2018-01-27T22:37:39.943Z,3.20
2018-01-27T22:42:24.260Z,3.20
2018-01-27T22:47:08.379Z,3.20
2018-01-27T22:51:51.750Z,3.20
2018-01-27T22:56:35.873Z,3.20
2018-01-27T23:01:21.112Z,3.20
2018-01-27T23:06:04.444Z,3.40
2018-01-27T23:10:48.637Z,3.30
2018-01-27T23:15:32.009Z,3.20
2018-01-27T23:20:16.256Z,3.30
2018-01-27T23:24:59.843Z,3.60
2018-01-27T23:29:43.166Z,3.70
2018-01-27T23:34:26.486Z,3.80
2018-01-27T23:39:10.968Z,3.80
2018-01-27T23:43:54.447Z,4.00
2018-01-27T23:48:38.556Z,4.10
2018-01-27T23:53:21.844Z,4.10
2018-01-27T23:58:05.302Z,4.20
